Time;durP1;ratioP1;P1;durP2;ratioP2;P2;SDS_P1;SDS_P2;PMS_P1;PMS_P2;Temp;Humidity;BMP_temperature;BMP_pressure;BME280_temperature;BME280_humidity;BME280_pressure;Samples;Min_cycle;Max_cycle;Signal;HPM_P1;HPM_P2
2022/06/07 00:00:10;;;;;;;4.85;3.22;;;;;;;14.71;79.03;100441.78;5081834;28;20511;-73
2022/06/07 00:02:36;;;;;;;4.63;3.00;;;;;;;14.87;78.44;100440.50;5083601;28;20032;-73
2022/06/07 00:05:03;;;;;;;3.95;2.67;;;;;;;15.06;77.47;100450.66;5080819;28;20127;-73
2022/06/07 00:07:28;;;;;;;4.28;2.75;;;;;;;15.22;76.87;100438.72;5083319;28;20055;-73
2022/06/07 00:09:54;;;;;;;5.07;2.65;;;;;;;15.37;76.49;100434.75;5082080;28;20513;-73
2022/06/07 00:12:20;;;;;;;6.55;3.00;;;;;;;15.46;76.11;100433.66;5081513;28;20038;-73
2022/06/07 00:14:46;;;;;;;4.45;2.67;;;;;;;15.50;76.14;100432.63;5080200;28;20107;-73
2022/06/07 00:17:12;;;;;;;4.00;2.70;;;;;;;15.54;76.17;100431.66;5083674;28;20028;-73
2022/06/07 00:19:38;;;;;;;5.50;3.38;;;;;;;15.48;76.83;100431.81;5076665;28;20080;-73
2022/06/07 00:22:04;;;;;;;4.25;2.70;;;;;;;15.46;76.67;100433.66;5081314;28;20036;-73
2022/06/07 00:24:30;;;;;;;4.38;3.03;;;;;;;15.53;76.93;100417.44;5075955;28;20086;-73
2022/06/07 00:26:55;;;;;;;4.53;3.08;;;;;;;15.54;76.71;100410.38;5081177;28;20111;-73
2022/06/07 00:29:24;;;;;;;4.55;2.75;;;;;;;15.53;77.21;100408.59;5080735;28;20037;-73
2022/06/07 00:31:49;;;;;;;5.35;3.15;;;;;;;15.60;77.27;100401.34;5082750;28;20039;-73
2022/06/07 00:34:15;;;;;;;5.35;3.92;;;;;;;15.61;77.50;100400.41;5078257;28;20016;-73
2022/06/07 00:36:40;;;;;;;6.10;3.47;;;;;;;15.64;77.77;100406.53;5082126;28;20032;-74
2022/06/07 00:39:06;;;;;;;5.60;3.03;;;;;;;15.70;77.70;100398.41;5080550;28;20072;-73
2022/06/07 00:41:32;;;;;;;6.70;3.53;;;;;;;15.75;77.05;100399.13;5080865;28;20038;-73
2022/06/07 00:44:28;;;;;;;4.85;3.30;;;;;;;15.73;77.49;100400.97;5082888;28;20450;-73
2022/06/07 00:47:17;;;;;;;5.43;2.92;;;;;;;15.77;77.58;100396.41;5062688;28;20182;-73
2022/06/07 00:49:53;;;;;;;4.32;3.03;;;;;;;15.83;76.74;100387.41;5061948;28;20510;-73
2022/06/07 00:52:21;;;;;;;5.07;3.50;;;;;;;15.87;76.79;100391.69;5079404;28;20051;-73
2022/06/07 00:54:47;;;;;;;6.03;3.42;;;;;;;15.90;77.07;100387.16;5081758;28;20031;-73
2022/06/07 00:57:27;;;;;;;4.63;3.38;;;;;;;15.91;77.12;100399.53;5077901;28;20107;-73
2022/06/07 00:59:52;;;;;;;4.60;3.15;;;;;;;15.83;77.40;100390.06;5079589;28;20136;-73
2022/06/07 01:02:20;;;;;;;4.32;3.33;;;;;;;15.76;77.49;100395.53;5080673;28;20178;-73
2022/06/07 01:04:45;;;;;;;3.78;2.55;;;;;;;15.72;77.43;100399.22;5078496;28;20139;-73
2022/06/07 01:12:47;;;;;;;7.35;3.42;;;;;;;15.77;77.18;100397.31;5076811;28;20115;-73
2022/06/07 01:15:14;;;;;;;5.10;3.80;;;;;;;15.81;77.23;100391.88;5080665;28;20054;-73
2022/06/07 01:17:42;;;;;;;4.85;3.67;;;;;;;15.81;77.26;100397.22;5079937;28;20025;-73
2022/06/07 01:20:08;;;;;;;5.05;3.33;;;;;;;15.80;77.86;100398.09;5078006;28;20518;-74
2022/06/07 01:22:33;;;;;;;4.30;3.72;;;;;;;15.73;77.76;100385.00;5075523;28;20033;-73
2022/06/07 01:24:59;;;;;;;4.70;3.30;;;;;;;15.74;77.49;100384.06;5081449;28;20043;-73
2022/06/07 01:27:25;;;;;;;5.55;3.22;;;;;;;15.71;78.07;100377.97;5078717;28;20143;-73
2022/06/07 01:29:51;;;;;;;5.50;3.22;;;;;;;15.70;78.17;100382.44;5078072;28;20028;-73
2022/06/07 01:32:18;;;;;;;4.38;3.42;;;;;;;15.65;78.62;100375.47;5077496;28;20028;-73
2022/06/07 01:34:45;;;;;;;5.75;4.10;;;;;;;15.64;78.96;100382.59;5078852;28;20556;-73
2022/06/07 01:37:13;;;;;;;5.35;4.20;;;;;;;15.60;79.42;100383.59;5081451;28;20032;-74
2022/06/07 01:42:24;;;;;;;4.50;3.40;;;;;;;15.67;78.51;100376.31;5086397;28;20024;-74
2022/06/07 01:44:50;;;;;;;5.32;3.33;;;;;;;15.65;77.87;100370.16;5084057;28;20534;-74
2022/06/07 01:47:23;;;;;;;4.90;3.28;;;;;;;15.63;77.63;100378.16;5085228;28;20028;-73
2022/06/07 01:49:53;;;;;;;4.68;3.08;;;;;;;15.50;78.43;100376.78;5085639;28;20118;-73
2022/06/07 01:52:22;;;;;;;4.25;3.35;;;;;;;15.51;78.58;100375.84;5083022;28;20517;-74
2022/06/07 01:54:51;;;;;;;5.63;4.40;;;;;;;15.48;78.76;100374.19;5083395;28;20043;-73
2022/06/07 01:57:22;;;;;;;5.68;4.20;;;;;;;15.49;79.15;100375.06;5084468;28;20040;-73
2022/06/07 01:59:49;;;;;;;7.30;3.10;;;;;;;15.45;78.68;100376.03;5078279;28;20518;-73
2022/06/07 02:02:22;;;;;;;4.57;3.25;;;;;;;15.40;78.50;100364.66;5083351;28;20024;-73
2022/06/07 02:04:48;;;;;;;4.65;3.15;;;;;;;15.40;77.73;100369.97;5084252;28;20070;-73
2022/06/07 02:07:15;;;;;;;4.20;3.20;;;;;;;15.32;78.40;100368.41;5081839;28;20490;-73
2022/06/07 02:09:41;;;;;;;6.63;3.78;;;;;;;15.27;79.33;100365.03;5084200;28;20039;-74
2022/06/07 02:12:09;;;;;;;5.32;4.10;;;;;;;15.24;80.06;100365.09;5081921;28;20413;-73
2022/06/07 02:14:34;;;;;;;6.00;4.07;;;;;;;15.18;80.10;100373.25;5083511;28;20051;-73
2022/06/07 02:17:00;;;;;;;5.88;4.25;;;;;;;15.16;81.46;100359.13;5083743;28;20039;-73
2022/06/07 02:19:35;;;;;;;6.03;4.60;;;;;;;15.24;81.13;100356.25;5077799;28;20078;-73
2022/06/07 02:22:01;;;;;;;5.88;4.65;;;;;;;15.32;80.41;100357.78;5083553;28;20044;-74
2022/06/07 02:24:26;;;;;;;6.82;5.20;;;;;;;15.33;80.29;100359.53;5082987;28;20024;-73
2022/06/07 02:26:55;;;;;;;5.75;3.70;;;;;;;15.39;80.31;100349.63;5082955;28;20035;-73
2022/06/07 02:29:29;;;;;;;6.50;4.70;;;;;;;15.36;81.00;100352.41;5085704;28;20504;-73
2022/06/07 02:32:05;;;;;;;5.43;3.92;;;;;;;15.38;80.43;100355.84;5078823;28;20036;-73
2022/06/07 02:34:32;;;;;;;5.18;4.28;;;;;;;15.32;80.67;100359.56;5075434;28;20499;-73
2022/06/07 02:37:01;;;;;;;5.30;3.63;;;;;;;15.41;80.08;100361.09;5085010;28;20048;-73
2022/06/07 02:39:28;;;;;;;7.70;6.07;;;;;;;15.47;79.07;100360.91;5070396;28;20086;-73
2022/06/07 02:41:54;;;;;;;5.30;4.20;;;;;;;15.49;79.21;100361.75;5066930;28;20494;-73
2022/06/07 02:44:19;;;;;;;6.38;4.07;;;;;;;15.52;79.05;100359.00;5076530;28;20038;-73
2022/06/07 02:46:45;;;;;;;4.53;3.45;;;;;;;15.53;78.76;100352.75;5079176;28;20043;-73
2022/06/07 02:49:11;;;;;;;6.18;3.50;;;;;;;15.49;79.06;100351.97;5084042;28;20028;-73
2022/06/07 02:51:37;;;;;;;4.40;3.30;;;;;;;15.55;78.94;100353.59;5079757;28;20509;-73
2022/06/07 02:54:02;;;;;;;5.03;3.25;;;;;;;15.57;79.48;100357.09;5083126;28;20192;-73
2022/06/07 02:56:28;;;;;;;6.95;5.35;;;;;;;15.65;79.06;100355.06;5078385;28;20400;-73
2022/06/07 02:58:54;;;;;;;7.28;4.70;;;;;;;15.77;78.31;100354.72;5075003;28;20082;-73
2022/06/07 03:01:21;;;;;;;5.25;4.57;;;;;;;15.81;78.17;100346.66;5068102;28;20036;-73
2022/06/07 03:03:47;;;;;;;6.07;4.90;;;;;;;15.88;77.99;100348.22;5072635;28;20045;-73
2022/06/07 03:06:13;;;;;;;6.40;4.32;;;;;;;15.90;77.70;100349.00;5072897;28;20058;-73
2022/06/07 03:08:39;;;;;;;5.18;3.75;;;;;;;15.83;77.91;100350.16;5067408;28;20029;-73
2022/06/07 03:11:05;;;;;;;5.10;3.70;;;;;;;15.85;78.31;100357.16;5071486;28;20078;-73
2022/06/07 03:13:33;;;;;;;6.53;3.90;;;;;;;15.90;77.42;100359.66;5076626;28;20634;-73
2022/06/07 03:16:01;;;;;;;7.25;4.20;;;;;;;15.93;77.64;100359.59;5077849;28;20032;-73
2022/06/07 03:18:26;;;;;;;5.72;3.72;;;;;;;15.97;77.80;100361.22;5080905;28;20040;-73
2022/06/07 03:20:52;;;;;;;7.15;3.65;;;;;;;16.03;77.47;100361.00;5083418;28;20032;-73
2022/06/07 03:23:19;;;;;;;5.53;4.00;;;;;;;16.04;77.79;100360.13;5077688;28;20083;-73
2022/06/07 03:26:02;;;;;;;5.43;3.80;;;;;;;16.08;77.21;100361.75;5083520;28;20043;-73
2022/06/07 03:28:28;;;;;;;6.20;3.80;;;;;;;16.04;76.82;100356.59;5083650;28;20044;-74
2022/06/07 03:31:01;;;;;;;6.10;4.35;;;;;;;16.09;77.29;100354.66;5079085;28;20041;-73
2022/06/07 03:33:27;;;;;;;8.43;5.13;;;;;;;16.13;77.21;100354.47;5077197;28;20057;-74
2022/06/07 03:35:52;;;;;;;6.07;4.60;;;;;;;16.18;76.26;100363.19;5082634;28;20119;-73
2022/06/07 03:38:18;;;;;;;5.63;4.03;;;;;;;16.22;75.84;100361.34;5079304;28;20404;-74
2022/06/07 03:40:48;;;;;;;7.28;4.32;;;;;;;16.24;76.10;100359.47;5077981;28;20041;-73
2022/06/07 03:43:18;;;;;;;6.00;3.65;;;;;;;16.18;76.09;100365.88;5076333;28;20119;-73
2022/06/07 03:45:44;;;;;;;5.95;3.80;;;;;;;16.15;76.60;100365.09;5083937;28;20040;-73
2022/06/07 03:48:13;;;;;;;8.23;4.13;;;;;;;16.20;76.97;100366.69;5081527;28;20411;-73
2022/06/07 03:50:39;;;;;;;5.50;4.57;;;;;;;16.31;77.08;100370.81;5082659;28;20085;-73
2022/06/07 03:53:07;;;;;;;7.00;4.85;;;;;;;16.41;76.81;100369.59;5079123;28;20089;-73
2022/06/07 03:55:35;;;;;;;7.28;5.82;;;;;;;16.52;76.21;100372.75;5082299;28;20035;-73
2022/06/07 03:58:10;;;;;;;6.65;5.05;;;;;;;16.60;75.75;100373.38;5081790;28;20126;-73
2022/06/07 04:00:35;;;;;;;9.45;7.32;;;;;;;16.73;75.44;100375.63;5081282;28;20033;-73
2022/06/07 04:03:04;;;;;;;5.15;4.43;;;;;;;16.89;74.50;100363.53;5074971;28;20403;-73
2022/06/07 04:05:29;;;;;;;5.85;4.43;;;;;;;17.03;75.13;100361.28;5081772;28;20039;-73
2022/06/07 04:08:11;;;;;;;6.57;4.20;;;;;;;17.14;74.50;100370.69;5064686;28;20039;-73
2022/06/07 04:11:04;;;;;;;5.47;4.07;;;;;;;17.27;74.31;100362.19;5076589;28;20107;-74
2022/06/07 04:13:37;;;;;;;5.88;3.55;;;;;;;17.40;73.83;100354.59;5068790;28;20123;-74
2022/06/07 04:16:09;;;;;;;4.80;3.85;;;;;;;17.43;73.05;100354.50;5082570;28;20055;-73
2022/06/07 04:18:41;;;;;;;4.18;3.33;;;;;;;17.42;72.79;100359.88;5060000;28;20094;-74
2022/06/07 04:21:06;;;;;;;4.70;3.03;;;;;;;17.40;72.21;100365.28;5080339;28;20029;-74
2022/06/07 04:23:32;;;;;;;6.55;3.30;;;;;;;17.45;72.34;100368.66;5079946;28;20041;-73
2022/06/07 04:26:05;;;;;;;6.13;3.47;;;;;;;17.56;71.68;100356.72;5079887;28;20031;-74
2022/06/07 04:28:31;;;;;;;5.35;3.67;;;;;;;17.62;70.78;100359.13;5064660;28;20202;-74
2022/06/07 04:30:56;;;;;;;4.80;3.38;;;;;;;17.70;70.76;100354.38;5075746;28;20167;-73
2022/06/07 04:33:26;;;;;;;6.15;3.42;;;;;;;17.80;70.31;100353.13;5078210;28;20036;-73
2022/06/07 04:35:54;;;;;;;6.47;4.50;;;;;;;17.90;69.81;100343.81;5078894;28;20024;-73
2022/06/07 04:38:22;;;;;;;5.18;3.63;;;;;;;17.99;69.84;100360.41;5077821;28;20487;-72
2022/06/07 04:40:48;;;;;;;4.75;3.22;;;;;;;18.06;69.09;100345.88;5077989;28;20074;-73
2022/06/07 04:43:14;;;;;;;5.05;3.08;;;;;;;18.18;68.99;100348.03;5073007;28;20120;-73
2022/06/07 04:45:40;;;;;;;5.30;3.22;;;;;;;18.24;68.59;100347.81;5077728;28;20495;-73
2022/06/07 04:48:11;;;;;;;4.55;3.50;;;;;;;18.22;68.37;100344.34;5077323;28;20031;-73
2022/06/07 04:50:45;;;;;;;5.88;2.85;;;;;;;18.24;68.51;100347.81;5072011;28;20143;-72
2022/06/07 04:53:14;;;;;;;8.27;4.25;;;;;;;18.30;68.34;100344.88;5075835;28;20410;-73
2022/06/07 04:55:39;;;;;;;5.47;3.30;;;;;;;18.44;67.99;100344.31;5074771;28;20028;-73
2022/06/07 04:58:06;;;;;;;5.90;4.13;;;;;;;18.54;67.02;100345.66;5059503;28;20055;-73
2022/06/07 05:00:31;;;;;;;9.57;6.95;;;;;;;18.65;66.46;100353.22;5078890;28;20071;-73
2022/06/07 05:03:00;;;;;;;7.63;4.10;;;;;;;18.62;66.69;100348.88;5063120;28;20115;-73
2022/06/07 05:05:29;;;;;;;5.97;4.10;;;;;;;18.69;66.39;100348.63;5081529;28;20071;-74
2022/06/07 05:07:58;;;;;;;6.05;3.75;;;;;;;18.80;66.29;100346.41;5074697;28;20060;-73
2022/06/07 05:10:24;;;;;;;6.15;4.65;;;;;;;18.82;66.07;100350.75;5077950;28;20044;-73
2022/06/07 05:12:55;;;;;;;7.03;4.35;;;;;;;18.84;66.03;100358.72;5078685;28;20036;-73
2022/06/07 05:15:24;;;;;;;6.90;4.50;;;;;;;18.89;66.18;100366.50;5073715;28;20221;-73
2022/06/07 05:17:54;;;;;;;9.15;4.00;;;;;;;18.81;66.01;100385.56;5076725;28;20066;-73
2022/06/07 05:20:22;;;;;;;12.02;3.95;;;;;;;18.75;66.68;100385.81;5080229;28;20558;-73
2022/06/07 05:22:52;;;;;;;7.88;4.13;;;;;;;18.63;66.53;100389.88;5080370;28;20024;-73
2022/06/07 05:25:19;;;;;;;5.15;3.83;;;;;;;18.55;67.02;100378.63;5077925;28;20119;-73
2022/06/07 05:27:49;;;;;;;4.85;3.55;;;;;;;18.50;67.66;100383.28;5080807;28;20032;-73
2022/06/07 05:30:18;;;;;;;;;;;;;;;18.40;68.08;100383.66;5080224;28;20123;-73
2022/06/07 05:32:50;;;;;;;7.95;3.83;;;;;;;18.42;67.79;100380.94;5077454;28;20293;-73
2022/06/07 05:35:24;;;;;;;6.90;3.70;;;;;;;18.44;68.41;100378.19;5080174;28;20036;-74
2022/06/07 05:38:02;;;;;;;6.43;3.83;;;;;;;18.48;68.56;100377.13;5074785;28;20032;-73
2022/06/07 05:40:30;;;;;;;9.18;5.28;;;;;;;18.49;69.56;100376.19;5079130;28;20441;-73
2022/06/07 05:42:57;;;;;;;9.10;5.78;;;;;;;18.49;69.82;100381.53;5076541;28;20032;-73
2022/06/07 05:45:31;;;;;;;7.35;4.03;;;;;;;18.54;69.13;100383.06;5081352;28;20118;-73
2022/06/07 05:47:58;;;;;;;7.72;3.83;;;;;;;18.55;69.45;100389.31;5058144;28;20037;-73
2022/06/07 05:50:25;;;;;;;4.75;3.25;;;;;;;18.50;69.99;100391.31;5073605;28;20176;-73
2022/06/07 05:52:54;;;;;;;5.45;3.08;;;;;;;18.59;70.23;100396.25;5073496;28;20033;-74
2022/06/07 05:55:20;;;;;;;7.78;4.47;;;;;;;18.56;70.14;100394.59;5080612;28;20028;-74
2022/06/07 05:57:49;;;;;;;6.22;3.92;;;;;;;18.71;70.99;100403.78;5077502;28;20150;-73
2022/06/07 06:00:18;;;;;;;9.15;4.57;;;;;;;18.88;69.49;100400.41;5076544;28;20513;-72
2022/06/07 06:02:48;;;;;;;8.45;4.40;;;;;;;19.01;69.42;100403.44;5076593;28;20035;-74
2022/06/07 06:05:26;;;;;;;10.05;4.95;;;;;;;19.11;68.76;100395.88;5074837;28;20028;-74
2022/06/07 06:10:38;;;;;;;5.95;3.47;;;;;;;19.37;67.33;100395.59;5074842;28;20036;-73
2022/06/07 06:13:06;;;;;;;7.70;4.03;;;;;;;19.47;66.13;100390.72;5079285;28;20031;-73
2022/06/07 06:15:33;;;;;;;6.35;3.50;;;;;;;19.37;66.52;100384.91;5078400;28;20020;-73
2022/06/07 06:18:01;;;;;;;5.18;3.50;;;;;;;19.46;66.48;100386.28;5080973;28;20401;-73
2022/06/07 06:20:32;;;;;;;5.72;3.53;;;;;;;19.52;65.89;100386.03;5077719;28;20057;-73
2022/06/07 06:23:00;;;;;;;6.05;3.45;;;;;;;19.52;65.23;100393.16;5079186;28;20028;-73
2022/06/07 06:25:26;;;;;;;5.07;3.53;;;;;;;19.68;64.81;100389.75;5078273;28;20020;-73
2022/06/07 06:27:52;;;;;;;4.97;3.03;;;;;;;19.74;64.44;100387.75;5083739;28;20110;-73
2022/06/07 06:30:20;;;;;;;5.03;3.20;;;;;;;19.76;64.08;100391.22;5081659;28;20062;-74
2022/06/07 06:32:53;;;;;;;5.03;3.17;;;;;;;19.75;63.52;100397.50;5081827;28;20102;-73
2022/06/07 06:35:21;;;;;;;5.72;3.13;;;;;;;19.73;63.27;100388.66;5084624;28;20062;-73
2022/06/07 06:37:46;;;;;;;7.60;3.65;;;;;;;19.69;62.46;100394.16;5081017;28;20036;-73
2022/06/07 06:40:13;;;;;;;7.72;3.13;;;;;;;19.67;63.71;100393.34;5080058;28;20052;-74
2022/06/07 06:42:48;;;;;;;8.65;3.10;;;;;;;19.74;63.17;100388.59;5073747;28;20024;-73
2022/06/07 06:45:35;;;;;;;5.63;3.47;;;;;;;19.74;63.15;100395.78;5080240;28;20043;-73
2022/06/07 06:48:09;;;;;;;6.28;3.25;;;;;;;19.83;61.76;100400.69;5084456;28;20438;-73
2022/06/07 06:50:36;;;;;;;6.40;3.38;;;;;;;20.00;61.26;100400.78;5081699;28;20028;-73
2022/06/07 06:53:02;;;;;;;5.93;3.38;;;;;;;20.20;60.94;100401.63;5075604;28;20028;-74
2022/06/07 06:55:29;;;;;;;4.72;3.33;;;;;;;20.35;60.50;100403.56;5069808;28;20031;-73
2022/06/07 06:57:55;;;;;;;4.55;2.95;;;;;;;20.36;60.29;100403.50;5077537;28;20050;-74
2022/06/07 07:00:20;;;;;;;4.93;3.30;;;;;;;20.50;58.78;100407.31;5067248;28;20047;-73
2022/06/07 07:02:47;;;;;;;6.60;3.38;;;;;;;20.55;58.26;100390.09;5067742;28;20443;-73
2022/06/07 07:05:16;;;;;;;5.65;3.55;;;;;;;20.55;59.55;100397.28;5071823;28;20032;-73
2022/06/07 07:07:46;;;;;;;5.95;3.92;;;;;;;20.71;58.81;100383.97;5079800;28;20113;-73
2022/06/07 07:10:18;;;;;;;5.32;3.40;;;;;;;20.85;58.01;100391.28;5074826;28;20060;-73
2022/06/07 07:12:44;;;;;;;6.45;2.95;;;;;;;20.96;57.61;100389.81;5082067;28;20782;-73
2022/06/07 07:15:13;;;;;;;5.13;2.38;;;;;;;21.32;56.24;100393.31;5082416;28;20040;-73
2022/06/07 07:17:47;;;;;;;4.97;3.28;;;;;;;21.61;55.73;100398.06;5076754;28;20036;-73
2022/06/07 07:20:13;;;;;;;6.25;3.78;;;;;;;21.50;55.54;100400.44;5084226;28;20032;-74
2022/06/07 07:22:42;;;;;;;6.10;3.22;;;;;;;21.61;55.39;100402.53;5081507;28;20561;-74
2022/06/07 07:25:09;;;;;;;4.25;2.97;;;;;;;21.74;55.37;100400.06;5074358;28;20028;-74
2022/06/07 07:27:35;;;;;;;7.75;3.35;;;;;;;22.00;54.72;100398.63;5080224;28;20090;-73
2022/06/07 07:30:01;;;;;;;4.55;3.33;;;;;;;21.85;54.93;100400.31;5083466;28;20487;-73
2022/06/07 07:32:32;;;;;;;6.90;3.38;;;;;;;21.98;54.71;100397.81;5077489;28;20101;-73
2022/06/07 07:34:58;;;;;;;6.40;3.53;;;;;;;21.98;55.48;100396.03;5082748;28;20467;-73
2022/06/07 07:37:29;;;;;;;5.00;3.22;;;;;;;21.78;53.27;100383.69;5074982;28;20036;-73
2022/06/07 07:40:06;;;;;;;5.97;3.97;;;;;;;21.52;54.24;100384.25;5075807;28;20044;-73
2022/06/07 07:42:32;;;;;;;5.53;2.90;;;;;;;21.13;55.93;100388.94;5081807;28;20035;-73
2022/06/07 07:45:06;;;;;;;5.80;3.08;;;;;;;21.22;55.73;100387.56;5076821;28;20067;-73
2022/06/07 07:47:32;;;;;;;4.72;2.95;;;;;;;21.29;55.73;100398.88;5081543;28;20513;-73
2022/06/07 07:49:58;;;;;;;5.82;3.03;;;;;;;21.26;56.02;100390.97;5079282;28;20462;-73
2022/06/07 07:52:25;;;;;;;7.47;3.38;;;;;;;21.24;55.31;100396.41;5071849;28;20394;-74
2022/06/07 07:55:02;;;;;;;5.75;3.80;;;;;;;21.32;54.97;100387.97;5079024;28;20038;-73
2022/06/07 07:57:28;;;;;;;6.00;2.85;;;;;;;21.40;55.14;100381.25;5079925;28;20112;-74
2022/06/07 07:59:54;;;;;;;6.68;3.65;;;;;;;21.46;55.15;100382.78;5075309;28;20078;-73
2022/06/07 08:02:22;;;;;;;5.97;3.38;;;;;;;21.57;55.09;100377.69;5079376;28;20028;-74
2022/06/07 08:04:58;;;;;;;7.00;3.75;;;;;;;21.72;54.68;100385.84;5078362;28;20047;-73
2022/06/07 08:07:23;;;;;;;5.00;2.88;;;;;;;21.83;53.83;100384.31;5080894;28;20036;-74
2022/06/07 08:09:48;;;;;;;8.40;4.20;;;;;;;21.88;53.44;100387.59;5079904;28;20040;-74
2022/06/07 08:12:15;;;;;;;5.25;3.53;;;;;;;21.91;52.85;100381.19;5079364;28;20057;-73
2022/06/07 08:14:40;;;;;;;3.83;2.65;;;;;;;21.93;53.82;100383.78;5079138;28;20036;-73
2022/06/07 08:17:06;;;;;;;5.88;2.88;;;;;;;21.86;53.06;100384.13;5080615;28;20070;-73
2022/06/07 08:19:31;;;;;;;4.25;2.80;;;;;;;21.89;52.63;100381.28;5081564;28;20032;-74
2022/06/07 08:21:57;;;;;;;3.65;2.38;;;;;;;21.93;52.30;100378.41;5081007;28;20037;-73
2022/06/07 08:24:22;;;;;;;6.00;3.40;;;;;;;21.99;52.24;100375.41;5081368;28;20032;-73
2022/06/07 08:26:49;;;;;;;5.15;2.42;;;;;;;21.98;52.92;100379.03;5082718;28;20109;-74
2022/06/07 08:29:19;;;;;;;5.45;2.80;;;;;;;22.00;53.14;100385.19;5079920;28;20111;-73
2022/06/07 08:31:45;;;;;;;6.20;3.40;;;;;;;21.99;52.89;100383.47;5082028;28;20028;-73
2022/06/07 08:39:42;;;;;;;4.72;2.40;;;;;;;22.11;52.01;100377.38;5076771;28;20402;-73
2022/06/07 08:42:31;;;;;;;4.80;3.38;;;;;;;22.29;51.76;100381.72;5080642;28;20039;-73
2022/06/07 08:45:03;;;;;;;4.25;2.45;;;;;;;22.53;51.44;100370.53;5078815;28;20499;-73
2022/06/07 08:47:44;;;;;;;5.82;2.78;;;;;;;22.44;50.69;100373.75;5080450;28;20129;-73
2022/06/07 08:50:22;;;;;;;6.05;3.00;;;;;;;22.21;51.67;100370.56;5076888;28;20097;-73
2022/06/07 08:52:52;;;;;;;5.88;2.80;;;;;;;22.31;51.74;100363.69;5078984;28;20127;-73
2022/06/07 08:55:42;;;;;;;3.78;2.42;;;;;;;22.41;51.55;100352.44;5082038;28;20036;-73
2022/06/07 08:58:25;;;;;;;4.72;2.85;;;;;;;22.72;50.44;100365.81;5078747;28;20039;-74
2022/06/07 09:00:57;;;;;;;3.22;2.60;;;;;;;22.83;50.36;100365.16;5076809;28;20028;-73
2022/06/07 09:03:53;;;;;;;7.57;2.60;;;;;;;22.78;48.89;100358.34;5080735;28;20031;-73
2022/06/07 09:06:25;;;;;;;4.50;2.10;;;;;;;22.35;49.82;100355.44;5077373;28;20556;-74
2022/06/07 09:08:57;;;;;;;5.10;2.50;;;;;;;22.07;50.30;100357.03;5067216;28;20486;-74
2022/06/07 09:14:29;;;;;;;3.67;1.95;;;;;;;22.35;50.40;100347.38;5082760;28;20044;-73
2022/06/07 09:16:56;;;;;;;5.53;2.70;;;;;;;22.59;49.54;100350.50;5076487;28;20035;-73
2022/06/07 09:19:28;;;;;;;4.82;2.25;;;;;;;22.88;49.17;100349.59;5080813;28;20388;-74
2022/06/07 09:21:58;;;;;;;4.85;2.63;;;;;;;22.94;49.02;100351.06;5080264;28;20043;-74
2022/06/07 09:24:36;;;;;;;6.28;2.60;;;;;;;22.81;48.46;100340.16;5078144;28;20047;-74
2022/06/07 09:27:18;;;;;;;4.75;2.53;;;;;;;23.04;48.04;100351.41;5082421;28;20410;-73
2022/06/07 09:30:08;;;;;;;5.25;2.80;;;;;;;23.29;48.12;100346.25;5079899;28;20043;-74
2022/06/07 09:32:37;;;;;;;5.03;2.70;;;;;;;23.28;47.29;100339.13;5079433;28;20036;-74
2022/06/07 09:35:08;;;;;;;5.35;3.25;;;;;;;23.34;46.58;100340.56;5079568;28;20047;-73
2022/06/07 09:38:12;;;;;;;4.72;2.80;;;;;;;23.30;47.40;100349.81;5071653;28;20032;-74
2022/06/07 09:40:54;;;;;;;15.60;7.63;;;;;;;23.19;48.05;100340.56;5074077;28;20040;-73
2022/06/07 09:43:26;;;;;;;6.60;2.83;;;;;;;23.38;47.61;100340.28;5079480;28;20032;-73
2022/06/07 09:46:07;;;;;;;5.65;2.70;;;;;;;23.35;47.49;100355.78;5081862;28;20040;-74
2022/06/07 09:48:44;;;;;;;4.20;2.83;;;;;;;23.26;47.49;100348.25;5071960;28;20041;-74
2022/06/07 09:51:20;;;;;;;6.65;3.40;;;;;;;23.01;48.82;100338.16;5075696;28;20698;-74
2022/06/07 09:53:56;;;;;;;5.43;2.60;;;;;;;22.86;49.84;100335.38;5076952;28;20376;-73
2022/06/07 09:56:39;;;;;;;4.60;2.88;;;;;;;23.13;49.23;100337.38;5079746;28;20028;-74
2022/06/07 09:59:38;;;;;;;6.05;2.42;;;;;;;23.06;47.40;100344.97;5080607;28;20028;-73
2022/06/07 10:02:36;;;;;;;6.40;2.75;;;;;;;23.12;47.49;100349.97;5079906;28;20401;-74
2022/06/07 10:05:23;;;;;;;6.97;2.42;;;;;;;23.03;48.01;100345.16;5081388;28;20039;-74
2022/06/07 10:08:01;;;;;;;3.33;1.92;;;;;;;22.99;45.65;100338.22;5083206;28;20047;-73
2022/06/07 10:10:46;;;;;;;6.88;2.40;;;;;;;22.91;46.29;100346.72;5079885;28;20040;-73
2022/06/07 10:13:23;;;;;;;5.15;2.15;;;;;;;22.91;46.70;100340.50;5085342;28;20028;-74
2022/06/07 10:16:06;;;;;;;5.40;2.35;;;;;;;22.90;47.23;100338.78;5084923;28;20044;-74
2022/06/07 10:18:59;;;;;;;4.32;1.95;;;;;;;22.85;47.20;100343.56;5079182;28;20047;-73
2022/06/07 10:21:49;;;;;;;2.53;1.63;;;;;;;22.76;47.38;100332.38;5093158;28;20414;-74
2022/06/07 10:24:26;;;;;;;5.60;1.98;;;;;;;22.86;47.45;100331.81;5075980;28;20068;-74
2022/06/07 10:26:57;;;;;;;3.97;2.08;;;;;;;22.82;47.48;100330.25;5075722;28;20043;-74
2022/06/07 10:29:40;;;;;;;3.15;1.70;;;;;;;22.82;47.40;100338.34;5071224;28;20502;-74
2022/06/07 10:32:27;;;;;;;5.35;1.65;;;;;;;22.99;46.92;100330.16;5073867;28;20035;-75
2022/06/07 10:35:00;;;;;;;3.38;1.60;;;;;;;23.16;46.91;100331.78;5073132;28;20047;-74
2022/06/07 10:37:38;;;;;;;3.33;1.88;;;;;;;23.36;45.62;100330.56;5078628;28;20039;-75
2022/06/07 10:40:21;;;;;;;4.25;1.60;;;;;;;23.37;45.74;100332.28;5077655;28;20078;-74
2022/06/07 10:43:00;;;;;;;4.03;1.80;;;;;;;23.34;45.00;100338.75;5072657;28;20024;-73
2022/06/07 10:45:34;;;;;;;4.95;1.83;;;;;;;23.39;45.45;100330.38;5071549;28;20568;-74
2022/06/07 10:48:22;;;;;;;4.50;1.77;;;;;;;23.31;44.74;100336.22;5076096;28;20403;-74
2022/06/07 10:54:26;;;;;;;5.22;2.08;;;;;;;23.27;46.02;100332.03;5073649;28;20056;-74
2022/06/07 10:57:03;;;;;;;4.10;1.63;;;;;;;23.48;45.34;100343.28;5074957;28;20128;-74
2022/06/07 10:59:29;;;;;;;3.67;1.65;;;;;;;23.46;45.25;100342.50;5071293;28;20150;-74
2022/06/07 11:01:58;;;;;;;4.95;1.58;;;;;;;23.32;45.64;100334.44;5083120;28;20097;-73
2022/06/07 11:10:29;;;;;;;5.38;2.08;;;;;;;23.55;45.75;100336.56;5081727;28;20032;-74
2022/06/07 11:13:17;;;;;;;5.65;1.45;;;;;;;23.75;45.88;100337.13;5076294;28;20041;-74
2022/06/07 11:16:10;;;;;;;4.63;2.78;;;;;;;23.96;46.01;100334.88;5081199;28;20028;-74
2022/06/07 11:18:40;;;;;;;7.25;2.50;;;;;;;24.00;45.44;100341.81;5075510;28;20398;-74
2022/06/07 11:21:05;;;;;;;5.28;2.40;;;;;;;23.96;45.87;100338.44;5079353;28;20496;-74
2022/06/07 11:23:32;;;;;;;5.35;2.55;;;;;;;24.14;46.44;100330.13;5082016;28;20036;-74
2022/06/07 11:26:03;;;;;;;12.68;5.75;;;;;;;24.20;45.93;100329.69;5075965;28;20028;-74
2022/06/07 11:28:40;;;;;;;4.03;2.40;;;;;;;24.36;45.33;100322.31;5078987;28;20047;-74
2022/06/07 11:31:20;;;;;;;5.72;2.53;;;;;;;24.66;44.54;100329.34;5081383;28;20032;-74
2022/06/07 11:33:52;;;;;;;5.15;2.78;;;;;;;24.88;43.29;100323.34;5079324;28;20039;-74
2022/06/07 11:36:20;;;;;;;4.10;2.47;;;;;;;24.92;43.66;100319.47;5081947;28;20161;-74
2022/06/07 11:38:57;;;;;;;4.25;2.75;;;;;;;25.41;42.86;100310.63;5081340;28;20029;-74
2022/06/07 11:41:37;;;;;;;3.63;1.98;;;;;;;25.66;42.43;100317.84;5079964;28;20487;-73
2022/06/07 11:44:08;;;;;;;8.00;5.50;;;;;;;26.08;41.36;100318.38;5077146;28;20490;-74
2022/06/07 11:46:33;;;;;;;3.70;2.60;;;;;;;26.48;40.78;100318.09;5082028;28;20090;-74
2022/06/07 11:49:17;;;;;;;4.93;2.65;;;;;;;26.46;39.29;100309.22;5078579;28;20040;-74
2022/06/07 11:51:50;;;;;;;6.57;2.88;;;;;;;26.85;39.04;100301.75;5078092;28;20054;-73
2022/06/07 11:54:17;;;;;;;4.40;2.15;;;;;;;26.97;38.27;100299.94;5084301;28;20112;-74
2022/06/07 11:56:47;;;;;;;4.90;2.33;;;;;;;26.66;37.01;100292.34;5080700;28;20034;-74
2022/06/07 11:59:18;;;;;;;4.53;2.22;;;;;;;26.98;37.19;100286.25;5075714;28;20039;-74
2022/06/07 12:02:07;;;;;;;4.75;1.73;;;;;;;27.04;36.35;100288.50;5079857;28;20028;-74
2022/06/07 12:04:41;;;;;;;3.13;2.10;;;;;;;27.06;36.60;100293.78;5071090;28;20049;-74
2022/06/07 12:07:18;;;;;;;3.17;1.85;;;;;;;27.05;36.90;100284.81;5072033;28;20055;-74
2022/06/07 12:09:53;;;;;;;2.83;1.50;;;;;;;27.28;35.93;100284.88;5078921;28;20075;-74